EST,Max TemperatureF,Mean TemperatureF,Min TemperatureF,Max Dew PointF,MeanDew PointF,Min DewpointF,Max Humidity, Mean Humidity, Min Humidity, Max Sea Level PressureIn, Mean Sea Level PressureIn, Min Sea Level PressureIn, Max VisibilityMiles, Mean VisibilityMiles, Min VisibilityMiles, Max Wind SpeedMPH, Mean Wind SpeedMPH, Max Gust SpeedMPH,PrecipitationIn, CloudCover, Events, WindDirDegrees
2013-2-1,16,11,5,6,0,-3,76,65,53,30.47,30.34,30.18,10,9,2,22,8,29,T,5,Snow,264
2013-2-2,30,22,14,22,18,7,84,71,58,30.30,30.10,30.00,10,6,1,20,9,28,0.08,8,Snow,237
2013-2-3,27,19,11,21,15,8,92,80,67,30.15,30.05,29.97,10,5,1,15,4,21,T,7,Snow,291
2013-2-4,40,26,12,29,23,11,92,72,52,30.12,29.89,29.80,10,7,1,21,6,25,0.01,5,Snow,219
2013-2-5,39,30,20,31,23,18,92,78,64,30.05,29.93,29.87,10,5,2,17,5,22,0.00,4,,248
2013-2-6,37,33,28,28,25,23,78,74,69,30.27,30.20,30.08,10,7,5,10,5,15,0.00,5,,119
2013-2-7,61,46,30,46,35,25,93,66,39,30.17,29.97,29.82,10,7,3,18,7,23,0.14,3,Rain,165
2013-2-8,46,39,31,40,28,22,93,78,63,30.37,30.14,29.87,10,10,10,15,8,24,T,8,Rain,330
2013-2-9,43,33,23,24,22,19,88,67,45,30.41,30.32,30.15,10,10,8,13,5,17,0.00,2,,124
2013-2-10,52,44,35,48,37,21,89,71,52,30.14,29.89,29.72,10,9,2,21,11,32,0.27,7,Rain,160
2013-2-11,53,45,36,48,31,25,89,71,53,30.09,29.91,29.72,10,10,10,26,14,41,0.00,4,,255
2013-2-12,45,35,24,29,25,20,82,66,49,30.15,30.06,29.92,10,9,4,14,4,17,0.00,1,,278
2013-2-13,44,37,30,29,25,23,85,63,41,29.91,29.86,29.81,10,8,5,15,5,22,0.00,4,,281
2013-2-14,52,42,31,36,32,25,89,70,50,30.03,29.89,29.84,10,9,6,18,10,26,0.00,4,,232
2013-2-15,39,30,21,28,22,13,85,66,47,30.19,30.11,30.00,10,10,7,17,5,24,T,5,,290
2013-2-16,29,24,19,16,12,7,84,63,42,30.17,30.14,30.10,10,10,10,20,6,28,0.00,4,,303
2013-2-17,36,24,12,14,9,4,80,56,32,30.26,30.20,30.15,10,10,10,9,2,14,0.00,1,,197
2013-2-18,58,43,27,43,30,13,86,61,36,30.13,29.88,29.62,10,10,5,32,15,44,0.39,4,Rain,179
2013-2-19,47,35,23,43,19,10,86,71,55,30.19,29.95,29.65,10,10,3,30,16,39,0.10,8,Rain-Snow,282
2013-2-20,28,21,14,13,9,6,73,58,42,30.35,30.27,30.18,10,10,10,13,6,18,0.00,2,,317
2013-2-21,33,24,15,27,20,12,88,71,54,30.35,30.19,29.96,10,7,0,23,10,32,0.30,5,Fog-Rain-Snow,91
2013-2-22,37,34,31,34,30,23,96,83,70,30.02,29.89,29.81,10,5,0,23,10,30,0.03,8,Fog-Rain,200
2013-2-23,38,31,23,23,20,18,75,64,52,30.02,29.99,29.94,10,10,9,13,5,17,0.00,1,,277
2013-2-24,45,33,20,25,21,17,88,64,40,30.15,30.10,30.00,10,8,4,7,1,10,0.00,0,,5
2013-2-25,47,36,24,26,23,21,88,63,38,30.14,30.04,29.81,10,8,2,18,9,24,0.00,1,,93
2013-2-26,44,40,35,43,35,23,93,72,50,29.77,29.48,29.37,10,5,1,21,9,25,1.17,8,Rain,109
2013-2-27,40,36,32,37,30,27,92,87,82,29.75,29.67,29.52,10,4,1,22,11,31,0.05,8,Snow,251
2013-2-28,37,35,32,32,30,27,96,86,76,30.01,29.88,29.73,10,7,1,15,8,21,0.01,8,Rain-Snow,295